SCAR METAR and TAF weather

Enter ICAO airport designator
Station Type Date Time Source
SCAR METAR 2022/07/01 02:00 UTC NOAA

SCAR 010200Z 17005KT 9999 OVC026 16/11 Q1017


Station Type Date Time Source
SCAR Decoded METAR 2022/07/01 02:00 UTC NOAA

Arica, Chile (SCAR) 18-20S 070-20W 58M
Jun 30, 2022 - 10:00 PM EDT / 2022.07.01 0200 UTC
Wind: from the S (170 degrees) at 6 MPH (5 KT):0
Visibility: greater than 7 mile(s):0
Sky conditions: overcast
Temperature: 60 F (16 C)
Dew Point: 51 F (11 C)
Relative Humidity: 72%
Pressure (altimeter): 30.03 in. Hg (1017 hPa)
ob: SCAR 010200Z 17005KT 9999 OVC026 16/11 Q1017
cycle: 2

Station Type Date Time Source
SCAR TAF 2022/07/01 00:00 UTC NOAA

TAF SCAR 302200Z 0100/0124 19004KT 9999 OVC025 TN16/0108Z TX18/0118Z
BECMG 0108/0110 36004KT
BECMG 0116/0118 23010KT CAVOK

Example: see airport list